Time;durP1;ratioP1;P1;durP2;ratioP2;P2;SDS_P1;SDS_P2;PMS_P1;PMS_P2;Temp;Humidity;BMP_temperature;BMP_pressure;BME280_temperature;BME280_humidity;BME280_pressure;Samples;Min_cycle;Max_cycle;Signal;HPM_P1;HPM_P2
2022/05/24 00:01:16;;;;;;;4.72;4.22;;;;;;;22.34;65.42;99775.16;4895733;29;20072;-66
2022/05/24 00:03:44;;;;;;;5.82;4.22;;;;;;;22.34;65.40;99782.72;4896457;29;20059;-66
2022/05/24 00:06:13;;;;;;;6.07;4.57;;;;;;;22.32;65.66;99774.75;4896222;29;20053;-66
2022/05/24 00:08:42;;;;;;;6.05;4.93;;;;;;;22.36;65.64;99769.19;4896329;29;20049;-66
2022/05/24 00:11:10;;;;;;;8.23;4.63;;;;;;;22.36;65.83;99778.38;4896288;29;20045;-66
2022/05/24 00:13:38;;;;;;;6.57;4.30;;;;;;;22.32;66.04;99768.34;4896801;29;20041;-66
2022/05/24 00:16:06;;;;;;;9.25;4.97;;;;;;;22.31;66.39;99761.19;4895722;29;20044;-66
2022/05/24 00:18:34;;;;;;;6.63;5.00;;;;;;;22.37;65.53;99766.03;4896059;29;20049;-66
2022/05/24 00:21:04;;;;;;;5.82;4.72;;;;;;;22.35;65.47;99764.81;4896235;29;20400;-66
2022/05/24 00:23:33;;;;;;;5.65;4.40;;;;;;;22.40;65.07;99762.47;4895886;29;20045;-66
2022/05/24 00:26:05;;;;;;;9.07;4.32;;;;;;;22.36;65.26;99742.16;4895641;29;20056;-66
2022/05/24 00:28:34;;;;;;;9.45;5.13;;;;;;;22.36;65.81;99738.53;4896360;29;20048;-65
2022/05/24 00:31:02;;;;;;;5.32;4.30;;;;;;;22.34;65.68;99749.28;4897817;29;20056;-65
2022/05/24 00:33:32;;;;;;;5.03;4.22;;;;;;;22.21;66.04;99752.31;4883201;29;20063;-66
2022/05/24 00:36:00;;;;;;;6.70;4.90;;;;;;;22.15;66.30;99762.22;4899742;29;20053;-66
2022/05/24 00:38:36;;;;;;;5.63;4.20;;;;;;;22.10;66.75;99752.19;4900354;29;20377;-66
2022/05/24 00:41:26;;;;;;;5.82;4.75;;;;;;;22.08;67.50;99759.31;4899804;29;20498;-66
2022/05/24 00:43:59;;;;;;;6.50;4.88;;;;;;;22.09;66.43;99761.72;4899587;29;20068;-66
2022/05/24 00:46:44;;;;;;;5.00;4.43;;;;;;;22.07;66.54;99763.28;4882409;29;20056;-66
2022/05/24 00:49:34;;;;;;;8.20;5.07;;;;;;;22.05;66.86;99757.31;4899194;29;20061;-66
2022/05/24 00:52:11;;;;;;;6.07;4.40;;;;;;;22.17;65.94;99745.91;4900273;29;20041;-66
2022/05/24 00:54:40;;;;;;;5.60;4.90;;;;;;;22.05;66.66;99746.16;4894380;29;20044;-66
2022/05/24 00:57:18;;;;;;;7.63;5.28;;;;;;;21.88;67.28;99740.78;4899259;29;20048;-66
2022/05/24 00:59:59;;;;;;;8.00;4.70;;;;;;;21.74;68.29;99743.38;4899253;29;20416;-66
2022/05/24 01:02:27;;;;;;;7.43;4.97;;;;;;;;;;4899550;29;20059;-66
2022/05/24 01:04:57;;;;;;;6.78;4.40;;;;;;;21.67;69.39;99743.25;4900060;29;20057;-66
2022/05/24 01:07:24;;;;;;;4.68;4.25;;;;;;;21.66;69.98;99727.72;4899299;29;20060;-66
2022/05/24 01:10:19;;;;;;;6.47;4.90;;;;;;;21.61;70.17;99729.66;4899712;29;20131;-66
2022/05/24 01:13:04;;;;;;;4.97;4.47;;;;;;;21.61;70.61;99726.09;4886102;29;20052;-66
2022/05/24 01:15:32;;;;;;;5.18;4.40;;;;;;;21.62;70.35;99727.69;4898700;29;20049;-66
2022/05/24 01:18:00;;;;;;;7.97;4.65;;;;;;;21.54;70.84;99725.97;4899765;29;20053;-66
2022/05/24 01:20:29;;;;;;;5.38;4.55;;;;;;;21.53;70.33;99727.16;4899770;29;20045;-66
2022/05/24 01:22:57;;;;;;;5.60;4.63;;;;;;;21.52;70.06;99726.34;4899258;29;20427;-67
2022/05/24 01:25:33;;;;;;;5.32;4.82;;;;;;;21.51;69.56;99744.22;4898765;29;20053;-67
2022/05/24 01:28:06;;;;;;;5.90;4.40;;;;;;;21.47;69.35;99737.81;4899430;29;20072;-66
2022/05/24 01:30:34;;;;;;;7.07;4.78;;;;;;;21.41;69.85;99733.75;4898442;29;20526;-66
2022/05/24 01:38:34;;;;;;;6.25;4.15;;;;;;;21.43;68.97;99726.63;4897671;29;20055;-67
2022/05/24 01:41:03;;;;;;;5.82;4.05;;;;;;;21.45;68.55;99729.00;4898817;29;20053;-66
2022/05/24 01:43:30;;;;;;;6.03;4.50;;;;;;;21.49;68.82;99727.09;4897958;29;20045;-67
2022/05/24 01:46:05;;;;;;;6.65;4.18;;;;;;;21.51;68.64;99726.72;4899178;29;20507;-66
2022/05/24 01:48:41;;;;;;;5.28;4.32;;;;;;;21.43;68.98;99721.06;4898833;29;20057;-66
2022/05/24 01:51:14;;;;;;;7.18;4.13;;;;;;;21.42;69.01;99724.22;4882371;29;20419;-65
2022/05/24 01:53:50;;;;;;;6.75;4.45;;;;;;;21.36;69.18;99726.50;4898817;29;20063;-65
2022/05/24 01:56:49;;;;;;;5.28;4.28;;;;;;;21.32;69.39;99731.22;4899126;29;20059;-66
2022/05/24 01:59:18;;;;;;;5.55;4.15;;;;;;;21.29;70.01;99729.19;4899180;29;20507;-66
2022/05/24 02:01:50;;;;;;;6.95;4.70;;;;;;;21.29;69.93;99735.56;4899126;29;20051;-66
2022/05/24 02:04:20;;;;;;;5.53;4.25;;;;;;;21.24;69.82;99730.31;4885266;29;20531;-66
2022/05/24 02:07:22;;;;;;;7.20;4.32;;;;;;;21.27;70.01;99739.91;4898158;29;20057;-66
2022/05/24 02:09:53;;;;;;;6.38;4.10;;;;;;;21.38;69.18;99734.47;4898010;29;20056;-66
2022/05/24 02:12:28;;;;;;;5.97;4.10;;;;;;;21.32;69.35;99737.59;4898751;29;20116;-66
2022/05/24 02:15:13;;;;;;;6.43;4.20;;;;;;;21.40;69.73;99732.94;4898837;29;20045;-66
2022/05/24 02:17:47;;;;;;;6.80;4.97;;;;;;;21.28;70.72;99733.16;4897760;29;20064;-66
2022/05/24 02:20:21;;;;;;;6.82;5.07;;;;;;;21.25;71.19;99733.91;4898859;29;20408;-66
2022/05/24 02:22:49;;;;;;;7.20;5.35;;;;;;;21.24;71.19;99737.84;4898616;29;20045;-66
2022/05/24 02:25:23;;;;;;;9.43;5.53;;;;;;;21.08;71.99;99739.59;4898639;29;20056;-66
2022/05/24 02:27:51;;;;;;;7.30;5.57;;;;;;;21.01;72.56;99749.81;4897726;29;20684;-66
2022/05/24 02:30:25;;;;;;;7.57;5.78;;;;;;;20.79;73.91;99752.19;4897657;29;20067;-66
2022/05/24 02:32:53;;;;;;;;;;;;;;;20.68;74.57;99752.81;4897870;29;20060;-66
2022/05/24 02:35:23;;;;;;;6.75;5.15;;;;;;;20.74;74.46;99744.16;4897303;29;19923;-66
2022/05/24 02:37:50;;;;;;;7.95;5.20;;;;;;;20.54;75.30;99744.22;4897804;29;20432;-66
2022/05/24 02:43:05;;;;;;;8.02;5.43;;;;;;;20.43;75.92;99746.00;4896259;29;20520;-66
2022/05/24 02:45:33;;;;;;;9.55;5.85;;;;;;;20.28;76.45;99738.19;4897808;29;20050;-66
2022/05/24 02:48:01;;;;;;;7.90;5.45;;;;;;;20.28;76.97;99738.19;4897422;29;20051;-66
2022/05/24 02:50:28;;;;;;;7.65;5.97;;;;;;;20.20;77.64;99746.72;4897388;29;20083;-65
2022/05/24 02:52:56;;;;;;;9.63;5.57;;;;;;;20.14;78.02;99749.00;4881061;29;20052;-66
2022/05/24 02:55:24;;;;;;;7.82;5.75;;;;;;;19.92;78.78;99747.72;4897281;29;20049;-66
2022/05/24 02:57:52;;;;;;;7.85;5.95;;;;;;;19.88;79.21;99744.88;4897230;29;20438;-66
2022/05/24 03:00:24;;;;;;;7.63;5.70;;;;;;;19.76;79.90;99751.38;4880394;29;20053;-66
2022/05/24 03:02:52;;;;;;;9.38;6.05;;;;;;;19.68;80.62;99755.94;4886947;29;20048;-66
2022/05/24 03:05:26;;;;;;;9.20;6.05;;;;;;;19.64;80.82;99759.81;4897781;29;20045;-66
2022/05/24 03:10:41;;;;;;;9.95;6.13;;;;;;;19.64;80.34;99759.81;4897507;29;20053;-66
2022/05/24 03:15:58;;;;;;;8.98;6.30;;;;;;;19.51;80.95;99756.34;4897485;29;20044;-66
2022/05/24 03:18:26;;;;;;;8.13;6.03;;;;;;;19.74;79.22;99751.72;4897434;29;20484;-66
2022/05/24 03:20:54;;;;;;;6.75;5.18;;;;;;;19.63;80.02;99763.75;4896813;29;20072;-66
2022/05/24 03:23:21;;;;;;;8.95;6.53;;;;;;;19.55;80.17;99766.34;4896889;29;20079;-66
2022/05/24 03:25:49;;;;;;;9.35;6.30;;;;;;;19.48;80.41;99763.41;4897315;29;20056;-66
2022/05/24 03:28:20;;;;;;;9.68;5.15;;;;;;;19.70;79.44;99775.03;4897330;29;20515;-66
2022/05/24 03:30:48;;;;;;;9.35;5.60;;;;;;;19.76;79.52;99778.31;4896982;29;20511;-66
2022/05/24 03:33:17;;;;;;;6.95;5.80;;;;;;;19.66;80.02;99779.69;4896724;29;20055;-66
2022/05/24 03:35:44;;;;;;;8.30;6.30;;;;;;;19.45;81.01;99773.28;4896397;29;20064;-66
2022/05/24 03:38:12;;;;;;;11.55;6.80;;;;;;;19.36;82.12;99782.94;4897045;29;20052;-66
2022/05/24 03:40:40;;;;;;;10.30;6.47;;;;;;;19.28;82.92;99788.34;4895780;29;20397;-66
2022/05/24 03:43:15;;;;;;;12.10;7.25;;;;;;;19.19;84.01;99779.38;4896652;29;20389;-66
2022/05/24 03:45:42;;;;;;;12.07;7.13;;;;;;;19.16;84.06;99785.66;4897028;29;20049;-66
2022/05/24 03:48:16;;;;;;;8.40;6.60;;;;;;;19.24;83.93;99787.44;4876353;29;20056;-66
2022/05/24 03:50:44;;;;;;;8.57;7.03;;;;;;;19.48;82.88;99788.41;4878315;29;20045;-66
2022/05/24 03:53:12;;;;;;;9.80;6.93;;;;;;;19.67;82.01;99797.94;4878241;29;20053;-66
2022/05/24 03:55:39;;;;;;;8.73;7.05;;;;;;;19.71;81.96;99796.84;4877962;29;20501;-66
2022/05/24 03:58:07;;;;;;;11.05;6.55;;;;;;;19.69;82.12;99799.19;4878275;29;20061;-66
2022/05/24 04:00:40;;;;;;;10.68;7.57;;;;;;;19.79;81.82;99805.34;4878054;29;20052;-66
2022/05/24 04:03:08;;;;;;;9.13;7.38;;;;;;;19.85;81.75;99815.00;4878408;29;20052;-66
2022/05/24 04:05:46;;;;;;;10.45;7.25;;;;;;;19.82;81.64;99821.28;4876885;29;20049;-66
2022/05/24 04:08:24;;;;;;;12.13;7.93;;;;;;;19.87;81.13;99824.59;4877864;29;20061;-66
2022/05/24 04:11:06;;;;;;;11.18;8.02;;;;;;;19.94;80.79;99835.03;4878048;29;20075;-66
2022/05/24 04:13:36;;;;;;;8.85;6.55;;;;;;;19.86;80.67;99845.16;4878355;29;20052;-66
2022/05/24 04:16:07;;;;;;;13.10;7.20;;;;;;;20.01;79.79;99842.75;4877768;29;20052;-66
2022/05/24 04:18:36;;;;;;;8.48;6.70;;;;;;;20.04;79.69;99838.47;4878478;29;20512;-66
2022/05/24 04:21:04;;;;;;;10.10;6.40;;;;;;;20.20;78.24;99846.72;4877754;29;20049;-66
2022/05/24 04:23:31;;;;;;;10.80;6.78;;;;;;;20.32;77.67;99852.16;4877773;29;20057;-66
2022/05/24 04:26:04;;;;;;;8.32;6.22;;;;;;;20.34;76.94;99849.00;4876007;29;20057;-66
2022/05/24 04:28:34;;;;;;;7.78;6.20;;;;;;;20.31;77.17;99846.94;4877476;29;20056;-66
2022/05/24 04:31:01;;;;;;;10.55;6.53;;;;;;;20.41;76.71;99852.75;4875871;29;20052;-66
2022/05/24 04:33:29;;;;;;;9.90;6.10;;;;;;;20.47;76.07;99858.03;4877451;29;20049;-66
2022/05/24 04:35:57;;;;;;;6.32;5.43;;;;;;;20.65;76.31;99850.03;4871766;29;20045;-71
2022/05/24 04:38:25;;;;;;;7.05;5.78;;;;;;;21.16;74.18;99851.78;4856857;29;20065;-72
2022/05/24 04:43:40;;;;;;;11.05;5.78;;;;;;;21.75;70.51;99850.78;4873576;29;20107;-72
2022/05/24 04:46:08;;;;;;;7.32;5.80;;;;;;;21.98;69.47;99856.31;4872095;29;20049;-72
2022/05/24 04:48:36;;;;;;;11.40;5.78;;;;;;;22.04;69.29;99865.13;4892208;29;20045;-72
2022/05/24 04:51:04;;;;;;;6.25;5.65;;;;;;;22.29;68.54;99857.13;4889702;29;20056;-72
2022/05/24 04:53:32;;;;;;;9.32;5.60;;;;;;;22.34;68.94;99855.19;4895825;29;20049;-72
2022/05/24 04:56:04;;;;;;;10.18;5.97;;;;;;;22.40;69.17;99859.25;4894582;29;20689;-72
2022/05/24 04:58:32;;;;;;;8.23;5.90;;;;;;;22.36;69.67;99858.38;4894891;29;20052;-72
2022/05/24 05:01:00;;;;;;;9.50;6.72;;;;;;;22.32;70.60;99863.09;4894531;29;20079;-72
2022/05/24 05:03:28;;;;;;;11.13;6.30;;;;;;;22.45;70.96;99867.28;4889741;29;20063;-72
2022/05/24 05:05:56;;;;;;;17.17;6.75;;;;;;;22.41;70.63;99866.41;4895807;29;20075;-71
2022/05/24 05:08:24;;;;;;;16.02;6.55;;;;;;;22.46;70.83;99870.84;4888241;29;20066;-70
2022/05/24 05:10:53;;;;;;;10.13;6.85;;;;;;;22.41;70.95;99877.56;4887350;29;20048;-71
2022/05/24 05:13:20;;;;;;;8.70;6.63;;;;;;;22.41;71.08;99883.16;4893360;29;20052;-71
2022/05/24 05:15:48;;;;;;;8.10;6.65;;;;;;;22.49;70.63;99872.91;4885900;29;20067;-71
2022/05/24 05:18:18;;;;;;;9.60;6.80;;;;;;;22.42;71.57;99873.59;4891658;29;20404;-71
2022/05/24 05:20:46;;;;;;;11.52;6.72;;;;;;;22.52;70.74;99889.69;4895205;29;20402;-71
2022/05/24 05:23:15;;;;;;;11.30;6.90;;;;;;;22.59;70.81;99885.38;4892116;29;20049;-71
2022/05/24 05:25:47;;;;;;;13.38;6.40;;;;;;;22.45;71.47;99881.22;4895830;29;20044;-71
2022/05/24 05:28:17;;;;;;;10.13;7.15;;;;;;;22.47;71.32;99878.84;4896950;29;20056;-71
2022/05/24 05:33:34;;;;;;;8.13;6.47;;;;;;;22.52;71.48;99886.09;4894642;29;20044;-71
2022/05/24 05:36:03;;;;;;;8.88;6.22;;;;;;;22.59;71.46;99882.59;4899305;29;20045;-71
2022/05/24 05:38:31;;;;;;;7.97;6.35;;;;;;;22.72;70.61;99889.53;4899309;29;20052;-71
2022/05/24 05:40:59;;;;;;;8.25;6.35;;;;;;;22.73;70.89;99873.59;4899153;29;20048;-71
2022/05/24 05:43:27;;;;;;;10.15;6.70;;;;;;;22.74;70.87;99880.78;4898060;29;20040;-71
2022/05/24 05:46:00;;;;;;;8.65;6.75;;;;;;;22.82;70.54;99886.06;4893324;29;20056;-71
2022/05/24 05:48:28;;;;;;;9.25;6.07;;;;;;;22.91;69.62;99877.41;4899062;29;20381;-72
2022/05/24 05:50:56;;;;;;;8.38;6.15;;;;;;;23.05;69.32;99890.69;4899163;29;20482;-72
2022/05/24 05:53:24;;;;;;;11.05;5.97;;;;;;;23.20;68.83;99890.81;4882268;29;20416;-72
2022/05/24 05:55:51;;;;;;;9.82;6.13;;;;;;;23.28;68.42;99889.72;4899166;29;20538;-72
2022/05/24 05:58:19;;;;;;;7.80;5.93;;;;;;;23.45;67.80;99893.06;4882499;29;20056;-72
2022/05/24 06:00:48;;;;;;;9.23;6.38;;;;;;;23.42;68.12;99882.69;4898690;29;20076;-72
2022/05/24 06:03:17;;;;;;;8.18;5.90;;;;;;;23.40;68.71;99885.09;4898971;29;20041;-72
2022/05/24 06:05:48;;;;;;;9.30;6.68;;;;;;;23.29;69.54;99885.75;4898649;29;20400;-72
2022/05/24 06:08:18;;;;;;;6.43;5.50;;;;;;;23.47;68.14;99896.31;4897724;29;20048;-72
2022/05/24 06:10:48;;;;;;;7.40;5.55;;;;;;;23.55;67.68;99892.38;4898863;29;20044;-72
2022/05/24 06:13:16;;;;;;;7.60;5.97;;;;;;;23.56;67.52;99893.97;4898770;29;20056;-72
2022/05/24 06:15:48;;;;;;;11.63;6.65;;;;;;;23.69;67.35;99900.06;4898567;29;20493;-72
2022/05/24 06:18:16;;;;;;;8.43;5.53;;;;;;;23.75;66.88;99901.31;4882098;29;20130;-72
2022/05/24 06:20:44;;;;;;;9.98;5.85;;;;;;;23.79;66.50;99898.53;4881791;29;20044;-72
2022/05/24 06:23:12;;;;;;;7.68;5.78;;;;;;;23.82;66.44;99900.59;4898405;29;20052;-72
2022/05/24 06:25:42;;;;;;;8.50;5.28;;;;;;;23.86;66.07;99901.38;4898263;29;20704;-72
2022/05/24 06:28:15;;;;;;;9.63;5.95;;;;;;;23.95;66.05;99897.47;4897634;29;20518;-71
2022/05/24 06:30:43;;;;;;;8.45;5.82;;;;;;;23.99;65.15;99898.28;4898363;29;20057;-72
2022/05/24 06:33:12;;;;;;;11.20;6.82;;;;;;;23.87;65.32;99894.63;4898422;29;20678;-72
2022/05/24 06:35:44;;;;;;;8.20;6.15;;;;;;;23.97;65.13;99901.47;4898256;29;20055;-72
2022/05/24 06:38:12;;;;;;;6.68;5.63;;;;;;;23.97;65.48;99895.06;4898291;29;20500;-72
2022/05/24 06:40:40;;;;;;;7.97;6.22;;;;;;;24.16;65.16;99906.00;4898113;29;20051;-72
2022/05/24 06:43:09;;;;;;;10.38;5.82;;;;;;;24.21;64.49;99899.25;4898273;29;20048;-72
2022/05/24 06:45:37;;;;;;;7.10;5.72;;;;;;;24.35;64.65;99894.94;4898012;29;20041;-72
2022/05/24 06:48:11;;;;;;;9.82;6.60;;;;;;;24.44;64.11;99903.78;4897873;29;20052;-72
2022/05/24 06:50:40;;;;;;;13.10;6.25;;;;;;;24.50;63.91;99901.41;4898156;29;20040;-72
2022/05/24 06:53:09;;;;;;;20.42;7.07;;;;;;;24.72;63.34;99896.69;4897936;29;20041;-72
2022/05/24 06:55:37;;;;;;;11.90;6.40;;;;;;;24.92;61.97;99894.38;4880998;29;20126;-72
2022/05/24 06:58:05;;;;;;;9.10;5.95;;;;;;;25.01;62.60;99891.19;4897790;29;20044;-72
2022/05/24 07:03:22;;;;;;;11.90;5.88;;;;;;;25.28;61.96;99898.44;4898114;29;20063;-72
2022/05/24 07:05:50;;;;;;;6.25;5.65;;;;;;;25.38;60.78;99894.88;4897471;29;20068;-72
2022/05/24 07:08:17;;;;;;;6.38;5.30;;;;;;;25.42;59.87;99904.06;4897767;29;20044;-72
2022/05/24 07:10:45;;;;;;;6.53;5.10;;;;;;;25.51;59.86;99906.47;4897508;29;20045;-72
2022/05/24 07:13:19;;;;;;;6.22;5.57;;;;;;;25.55;58.91;99914.91;4897662;29;20063;-72
2022/05/24 07:15:48;;;;;;;;;;;;;;;25.57;58.59;99918.91;4897938;29;20048;-72
2022/05/24 07:18:16;;;;;;;5.57;4.80;;;;;;;25.59;58.45;99912.91;4897511;29;19951;-72
2022/05/24 07:20:43;;;;;;;7.13;5.05;;;;;;;25.66;57.83;99914.91;4897134;29;20048;-72
2022/05/24 07:23:18;;;;;;;5.40;4.72;;;;;;;25.72;57.41;99921.72;4880152;29;20056;-72
2022/05/24 07:25:47;;;;;;;10.07;5.28;;;;;;;25.66;56.89;99915.69;4897237;29;20396;-72
2022/05/24 07:28:23;;;;;;;5.70;4.72;;;;;;;25.75;57.16;99907.69;4897707;29;20048;-72
2022/05/24 07:30:51;;;;;;;6.20;4.90;;;;;;;25.72;56.48;99916.91;4897237;29;20059;-72
2022/05/24 07:33:18;;;;;;;7.40;4.45;;;;;;;25.61;57.26;99907.72;4897239;29;20040;-72
2022/05/24 07:35:46;;;;;;;6.13;4.88;;;;;;;25.56;56.93;99905.31;4897176;29;20044;-72
2022/05/24 07:38:14;;;;;;;6.68;4.60;;;;;;;25.54;56.52;99914.09;4897190;29;20052;-72
2022/05/24 07:46:30;;;;;;;5.20;4.45;;;;;;;25.76;56.34;99897.31;4896676;29;20044;-72
2022/05/24 07:48:58;;;;;;;8.27;4.70;;;;;;;25.60;55.56;99911.69;4880535;29;20052;-72
2022/05/24 07:51:26;;;;;;;13.02;5.38;;;;;;;25.61;55.89;99907.72;4896841;29;20047;-72
2022/05/24 07:53:55;;;;;;;5.78;4.72;;;;;;;25.69;56.44;99903.69;4879941;29;20420;-72
2022/05/24 07:56:23;;;;;;;4.97;4.55;;;;;;;25.71;55.54;99898.50;4896885;29;20049;-72
2022/05/24 07:58:51;;;;;;;3.53;3.22;;;;;;;25.86;53.69;99906.91;4879289;29;20041;-72
2022/05/24 08:01:19;;;;;;;4.95;4.13;;;;;;;26.03;51.70;99903.28;4896633;29;20059;-72
2022/05/24 08:03:47;;;;;;;4.32;3.47;;;;;;;26.10;51.28;99901.66;4879585;29;20052;-72
2022/05/24 08:06:15;;;;;;;3.90;3.45;;;;;;;26.30;50.98;99905.63;4896686;29;20048;-72
2022/05/24 08:08:43;;;;;;;3.67;3.25;;;;;;;26.35;49.97;99901.63;4879567;29;20076;-72
2022/05/24 08:11:11;;;;;;;5.72;3.72;;;;;;;26.41;49.94;99902.00;4896742;29;20052;-72
2022/05/24 08:13:39;;;;;;;4.32;2.80;;;;;;;26.50;48.37;99905.19;4896829;29;20048;-72
2022/05/24 08:16:07;;;;;;;3.63;3.13;;;;;;;26.51;49.59;99908.78;4896540;29;20503;-72
2022/05/24 08:18:35;;;;;;;3.67;3.38;;;;;;;26.58;49.66;99905.16;4879543;29;20063;-72
2022/05/24 08:21:04;;;;;;;4.55;3.20;;;;;;;26.55;49.85;99903.94;4896377;29;20068;-72
2022/05/24 08:23:33;;;;;;;3.20;2.97;;;;;;;26.48;48.72;99906.78;4896621;29;20485;-72
2022/05/24 08:26:01;;;;;;;4.57;3.00;;;;;;;26.63;49.18;99908.31;4896266;29;20549;-73
2022/05/24 08:28:29;;;;;;;3.03;2.80;;;;;;;26.72;48.30;99915.50;4879837;29;20045;-72
2022/05/24 08:31:00;;;;;;;4.15;3.47;;;;;;;26.78;48.23;99908.25;4896448;29;20059;-73
2022/05/24 08:33:28;;;;;;;5.93;3.60;;;;;;;26.87;48.77;99910.63;4879870;29;20059;-72
2022/05/24 08:35:56;;;;;;;3.88;3.50;;;;;;;26.84;48.47;99907.41;4896466;29;20056;-72
2022/05/24 08:38:23;;;;;;;4.25;3.15;;;;;;;26.93;47.73;99901.38;4896199;29;20060;-72
2022/05/24 08:40:55;;;;;;;4.70;2.97;;;;;;;27.10;47.63;99901.69;4896390;29;20052;-72
2022/05/24 08:43:36;;;;;;;3.20;2.88;;;;;;;27.18;47.75;99896.84;4896280;29;20075;-72
2022/05/24 08:49:20;;;;;;;3.95;3.33;;;;;;;27.13;48.58;99909.31;4896311;29;20044;-72
2022/05/24 08:52:03;;;;;;;5.75;3.20;;;;;;;27.30;48.11;99887.91;4862326;29;20055;-72
2022/05/24 08:54:37;;;;;;;7.28;3.80;;;;;;;27.39;47.63;99892.25;4900080;29;20056;-72
2022/05/24 08:57:09;;;;;;;4.88;3.30;;;;;;;27.33;47.00;99886.28;4899987;29;20056;-72
2022/05/24 09:00:01;;;;;;;4.80;3.80;;;;;;;27.20;46.86;99886.78;4899912;29;20059;-73
2022/05/24 09:02:30;;;;;;;4.05;3.00;;;;;;;27.31;46.68;99891.50;4899824;29;20048;-72
2022/05/24 09:04:58;;;;;;;3.38;3.00;;;;;;;27.37;46.73;99885.03;4899713;29;20045;-72
2022/05/24 09:07:40;;;;;;;3.65;3.20;;;;;;;27.50;46.65;99890.16;4882743;29;20048;-72
2022/05/24 09:10:23;;;;;;;4.82;2.97;;;;;;;27.61;45.58;99888.09;4899808;29;20041;-72
2022/05/24 09:13:12;;;;;;;5.65;2.78;;;;;;;27.55;45.77;99892.53;4899738;29;20602;-72
2022/05/24 09:15:58;;;;;;;3.17;2.88;;;;;;;27.48;45.84;99886.97;4899625;29;20053;-72
2022/05/24 09:18:40;;;;;;;4.75;3.10;;;;;;;27.47;45.56;99891.00;4899488;29;20480;-72
2022/05/24 09:21:25;;;;;;;5.00;3.33;;;;;;;27.53;45.40;99880.91;4899232;29;20396;-72
2022/05/24 09:24:02;;;;;;;5.90;3.03;;;;;;;27.74;46.34;99894.00;4899442;29;20044;-72
2022/05/24 09:26:34;;;;;;;3.67;3.33;;;;;;;27.80;46.00;99883.09;4899301;29;20484;-72
2022/05/24 09:29:11;;;;;;;5.95;3.28;;;;;;;27.94;44.74;99876.53;4899222;29;20045;-72
2022/05/24 09:31:46;;;;;;;6.47;3.17;;;;;;;28.20;44.56;99876.28;4899335;29;20048;-72
2022/05/24 09:34:17;;;;;;;5.65;3.35;;;;;;;28.46;43.96;99879.63;4899128;29;20083;-72
2022/05/24 09:36:58;;;;;;;5.43;3.10;;;;;;;28.69;42.57;99887.38;4899617;29;20412;-72
2022/05/24 09:39:26;;;;;;;9.65;3.15;;;;;;;28.24;43.79;99877.06;4898971;29;20048;-72
2022/05/24 09:42:16;;;;;;;4.38;3.60;;;;;;;28.09;43.87;99879.22;4899077;29;20061;-72
2022/05/24 09:44:50;;;;;;;3.60;2.95;;;;;;;27.71;44.41;99875.16;4873851;29;20049;-72
2022/05/24 09:47:35;;;;;;;3.43;3.10;;;;;;;27.82;45.01;99877.88;4898793;29;20063;-72
2022/05/24 09:50:19;;;;;;;4.80;3.20;;;;;;;27.97;44.83;99877.72;4881622;29;20296;-72
2022/05/24 09:53:02;;;;;;;4.00;3.30;;;;;;;28.02;44.52;99880.09;4899088;29;20048;-72
2022/05/24 09:55:36;;;;;;;3.97;3.50;;;;;;;28.05;44.37;99870.78;4895281;29;20045;-72
2022/05/24 09:58:33;;;;;;;4.18;3.60;;;;;;;28.17;44.63;99873.09;4882151;29;20515;-72
2022/05/24 10:01:03;;;;;;;3.45;3.25;;;;;;;28.26;43.68;99877.44;4898801;29;20058;-72
2022/05/24 10:03:37;;;;;;;3.72;3.42;;;;;;;28.23;44.32;99879.06;4898752;29;20070;-72
2022/05/24 10:06:12;;;;;;;4.82;3.47;;;;;;;27.93;43.81;99882.56;4885835;29;20048;-72
2022/05/24 10:08:57;;;;;;;3.38;2.80;;;;;;;28.25;44.81;99887.09;4898630;29;20044;-72
2022/05/24 10:11:56;;;;;;;4.35;3.10;;;;;;;28.20;43.81;99884.72;4887743;29;20380;-72
2022/05/24 10:14:26;;;;;;;3.38;3.08;;;;;;;28.18;42.86;99885.13;4898294;29;20059;-72
2022/05/24 10:17:00;;;;;;;4.55;2.97;;;;;;;28.22;43.72;99885.09;4889428;29;20060;-72
2022/05/24 10:19:31;;;;;;;3.75;3.33;;;;;;;28.15;43.35;99878.31;4896293;29;20041;-72
2022/05/24 10:22:31;;;;;;;3.13;2.83;;;;;;;28.10;42.95;99887.22;4880583;29;20060;-72
2022/05/24 10:25:15;;;;;;;4.40;3.35;;;;;;;28.05;43.13;99887.66;4883012;29;20075;-72
2022/05/24 10:27:51;;;;;;;3.17;2.45;;;;;;;28.02;42.64;99885.72;4880183;29;20055;-72
2022/05/24 10:30:27;;;;;;;5.45;2.97;;;;;;;28.06;42.63;99885.66;4898394;29;20396;-72
2022/05/24 10:39:40;;;;;;;4.28;3.90;;;;;;;28.16;45.90;99893.19;4892997;29;20413;-72
2022/05/24 10:42:35;;;;;;;6.13;3.78;;;;;;;28.01;46.20;99889.75;4897720;29;20057;-72
2022/05/24 10:45:12;;;;;;;3.83;3.53;;;;;;;28.13;46.34;99886.41;4895862;29;20055;-72
2022/05/24 10:47:49;;;;;;;5.53;4.70;;;;;;;28.16;46.01;99879.91;4886499;29;20045;-72
2022/05/24 10:50:26;;;;;;;4.60;4.20;;;;;;;28.16;45.61;99881.94;4884934;29;20040;-72
2022/05/24 10:53:04;;;;;;;4.55;4.13;;;;;;;27.93;46.88;99885.38;4896313;29;20056;-72
2022/05/24 10:55:39;;;;;;;4.68;4.28;;;;;;;27.65;46.78;99878.84;4874477;29;20059;-72
2022/05/24 10:58:11;;;;;;;7.25;4.75;;;;;;;27.56;47.53;99885.69;4878953;29;20037;-72
2022/05/24 11:00:52;;;;;;;4.40;4.00;;;;;;;27.44;47.64;99872.16;4896361;29;20400;-72
2022/05/24 11:03:29;;;;;;;7.38;4.15;;;;;;;27.43;47.33;99867.75;4896619;29;20036;-72
2022/05/24 11:06:11;;;;;;;5.40;3.95;;;;;;;27.35;47.70;99879.06;4879730;29;20048;-72
2022/05/24 11:08:54;;;;;;;5.53;4.18;;;;;;;27.41;48.39;99873.00;4896034;29;20065;-72
2022/05/24 11:11:35;;;;;;;4.90;4.28;;;;;;;27.52;48.44;99872.91;4894336;29;20424;-72
2022/05/24 11:14:22;;;;;;;4.22;3.83;;;;;;;27.62;47.98;99874.84;4893078;29;20052;-72
2022/05/24 11:16:52;;;;;;;4.00;3.60;;;;;;;27.76;47.09;99868.31;4895987;29;20059;-72
2022/05/24 11:19:24;;;;;;;4.40;3.80;;;;;;;28.19;45.89;99871.88;4896180;29;20567;-72
2022/05/24 11:22:16;;;;;;;4.80;4.28;;;;;;;28.55;45.41;99874.28;4893711;29;20412;-72
2022/05/24 11:24:56;;;;;;;4.60;4.20;;;;;;;29.04;44.84;99874.03;4895208;29;20045;-72
2022/05/24 11:27:34;;;;;;;5.50;4.32;;;;;;;29.40;44.02;99871.84;4895926;29;20063;-72
2022/05/24 11:30:29;;;;;;;5.00;4.18;;;;;;;29.68;42.35;99875.44;4895320;29;20052;-72
2022/05/24 11:33:05;;;;;;;5.28;3.85;;;;;;;29.75;42.75;99866.88;4895581;29;20072;-72
2022/05/24 11:35:39;;;;;;;5.28;3.97;;;;;;;29.60;42.71;99864.31;4895592;29;20056;-72
2022/05/24 11:38:09;;;;;;;4.63;4.22;;;;;;;29.01;43.50;99862.81;4895941;29;20356;-72
2022/05/24 11:41:19;;;;;;;5.28;4.50;;;;;;;28.65;44.58;99867.72;4895972;29;20480;-72
2022/05/24 11:43:50;;;;;;;6.78;4.22;;;;;;;28.12;45.20;99865.13;4894222;29;20431;-72
2022/05/24 11:46:41;;;;;;;5.70;5.03;;;;;;;27.97;45.61;99866.47;4868321;29;20063;-72
2022/05/24 11:49:34;;;;;;;5.97;4.40;;;;;;;27.80;46.95;99857.81;4874507;29;20393;-72
2022/05/24 11:52:43;;;;;;;7.88;4.63;;;;;;;27.70;47.67;99867.94;4874216;29;20045;-72
2022/05/24 11:55:39;;;;;;;5.05;4.30;;;;;;;27.54;47.79;99862.03;4873788;29;20056;-72
2022/05/24 11:58:40;;;;;;;6.38;4.75;;;;;;;27.57;47.23;99866.84;4874598;29;20045;-72
2022/05/24 12:01:17;;;;;;;4.88;3.92;;;;;;;27.55;47.11;99863.63;4875146;29;20045;-72
2022/05/24 12:10:01;;;;;;;5.20;4.63;;;;;;;27.68;46.57;99858.31;4875858;29;20049;-72
2022/05/24 12:12:52;;;;;;;5.93;4.77;;;;;;;27.70;46.42;99858.72;4862397;29;20056;-72
2022/05/24 12:15:47;;;;;;;5.20;4.13;;;;;;;27.72;46.63;99853.47;4875498;29;20302;-72
2022/05/24 12:18:23;;;;;;;5.82;4.32;;;;;;;27.99;45.29;99845.16;4868242;29;20045;-72
2022/05/24 12:20:56;;;;;;;5.15;4.28;;;;;;;28.15;45.52;99857.84;4876799;29;20049;-73
2022/05/24 12:23:30;;;;;;;4.00;3.53;;;;;;;28.52;45.23;99858.22;4875059;29;20052;-72
2022/05/24 12:25:59;;;;;;;;;;;;;;;29.18;43.37;99844.84;4868876;29;20486;-72
2022/05/24 12:28:36;;;;;;;5.13;4.22;;;;;;;29.62;43.23;99849.78;4877913;29;19923;-72
2022/05/24 12:31:13;;;;;;;5.45;4.28;;;;;;;29.86;42.05;99849.78;4876364;29;20401;-72
2022/05/24 12:33:46;;;;;;;4.50;4.10;;;;;;;29.97;42.06;99846.72;4876418;29;20056;-72
2022/05/24 12:36:39;;;;;;;6.70;4.25;;;;;;;30.25;41.81;99844.59;4877458;29;20048;-72
2022/05/24 12:39:27;;;;;;;7.90;4.18;;;;;;;30.41;40.58;99849.50;4876758;29;20044;-72
2022/05/24 12:42:01;;;;;;;5.95;4.50;;;;;;;30.08;41.26;99835.22;4861743;29;20073;-72
2022/05/24 12:44:41;;;;;;;7.28;4.43;;;;;;;30.09;40.71;99843.28;4877354;29;20049;-72
2022/05/24 12:47:09;;;;;;;5.40;4.55;;;;;;;30.08;41.20;99840.88;4839944;29;1249293;-72